Time;durP1;ratioP1;P1;durP2;ratioP2;P2;SDS_P1;SDS_P2;PMS_P1;PMS_P2;Temp;Humidity;BMP_temperature;BMP_pressure;BME280_temperature;BME280_humidity;BME280_pressure;Samples;Min_cycle;Max_cycle;Signal;HPM_P1;HPM_P2
2021/03/07 00:00:50;;;;;;;7.10;4.83;;;9.00;46.80;;;;;;5063462;28;20040;-49
2021/03/07 00:03:15;;;;;;;7.13;4.50;;;8.90;46.60;;;;;;5060970;28;20119;-51
2021/03/07 00:05:41;;;;;;;6.70;4.47;;;8.90;46.00;;;;;;5062160;28;20064;-51
2021/03/07 00:08:06;;;;;;;6.33;5.03;;;8.80;46.70;;;;;;5054475;28;20053;-48
2021/03/07 00:10:32;;;;;;;7.17;4.90;;;8.80;47.00;;;;;;5059181;28;20072;-50
2021/03/07 00:12:58;;;;;;;7.50;4.80;;;8.80;46.40;;;;;;5057883;28;20047;-51
2021/03/07 00:15:23;;;;;;;7.43;4.80;;;8.80;47.20;;;;;;5062352;28;20095;-53
2021/03/07 00:17:50;;;;;;;5.13;3.87;;;8.80;46.60;;;;;;5058520;28;20469;-53
2021/03/07 00:20:17;;;;;;;7.57;4.77;;;8.80;46.80;;;;;;5067575;28;20499;-50
2021/03/07 00:22:43;;;;;;;8.13;4.73;;;8.80;46.00;;;;;;5054067;28;20029;-49
2021/03/07 00:25:10;;;;;;;9.03;5.40;;;8.80;46.20;;;;;;5056089;28;20089;-50
2021/03/07 00:27:37;;;;;;;6.60;4.70;;;8.80;47.00;;;;;;5058810;28;20067;-51
2021/03/07 00:30:06;;;;;;;5.60;4.80;;;8.80;46.10;;;;;;5060561;28;20045;-52
2021/03/07 00:32:31;;;;;;;5.67;3.83;;;8.80;46.10;;;;;;5076096;28;20049;-48
2021/03/07 00:34:57;;;;;;;5.00;3.93;;;8.70;45.30;;;;;;5063244;28;20051;-53
2021/03/07 00:44:07;;;;;;;8.60;4.57;;;8.70;45.50;;;;;;5005542;28;20042;-50
2021/03/07 00:46:33;;;;;;;5.40;4.47;;;8.60;46.10;;;;;;5063485;28;20083;-52
2021/03/07 00:48:59;;;;;;;6.43;3.93;;;8.60;45.70;;;;;;5053699;28;20049;-54
2021/03/07 00:51:24;;;;;;;6.53;4.43;;;8.70;46.20;;;;;;5055878;28;20029;-49
2021/03/07 00:53:51;;;;;;;5.00;4.13;;;8.70;46.30;;;;;;5058616;28;20067;-51
2021/03/07 00:56:17;;;;;;;7.50;4.17;;;8.60;46.00;;;;;;5067718;28;20037;-47
2021/03/07 00:58:42;;;;;;;5.73;3.97;;;8.60;46.10;;;;;;5058087;28;20395;-48
2021/03/07 01:01:08;;;;;;;6.57;4.17;;;8.60;46.10;;;;;;5060330;28;20055;-49
2021/03/07 01:03:34;;;;;;;5.30;3.80;;;8.60;45.80;;;;;;5056637;28;20047;-49
2021/03/07 01:05:59;;;;;;;6.30;4.00;;;8.60;45.90;;;;;;5064106;28;20040;-52
2021/03/07 01:08:25;;;;;;;7.07;4.37;;;8.50;45.60;;;;;;5054582;28;20040;-49
2021/03/07 01:10:50;;;;;;;7.70;4.50;;;8.60;46.00;;;;;;5062512;28;20115;-50
2021/03/07 01:13:17;;;;;;;8.50;4.60;;;8.60;45.10;;;;;;5058058;28;20063;-49
2021/03/07 01:15:43;;;;;;;9.90;4.60;;;8.60;45.20;;;;;;5056760;28;20037;-54
2021/03/07 01:18:09;;;;;;;5.27;4.27;;;8.60;45.90;;;;;;5058516;28;20040;-49
2021/03/07 01:20:38;;;;;;;4.97;3.70;;;8.50;45.30;;;;;;5073857;28;20074;-49
2021/03/07 01:23:04;;;;;;;6.83;4.77;;;8.60;45.40;;;;;;5049844;28;20029;-49
2021/03/07 01:25:31;;;;;;;7.50;4.00;;;8.50;46.00;;;;;;5051327;28;20040;-50
2021/03/07 01:28:01;;;;;;;6.23;4.70;;;8.50;45.80;;;;;;5067959;28;20033;-48
2021/03/07 01:30:27;;;;;;;5.57;4.27;;;8.50;45.60;;;;;;5057829;28;20052;-49
2021/03/07 01:32:53;;;;;;;4.83;4.03;;;8.40;46.00;;;;;;5064979;28;20570;-53
2021/03/07 01:35:19;;;;;;;7.30;4.60;;;8.50;46.90;;;;;;5071139;28;20074;-48
2021/03/07 01:37:45;;;;;;;5.60;4.17;;;8.50;46.50;;;;;;5063262;28;20106;-48
2021/03/07 01:40:17;;;;;;;8.70;4.50;;;8.50;46.20;;;;;;5057407;28;20537;-48
2021/03/07 01:42:54;;;;;;;7.40;4.47;;;8.50;45.90;;;;;;5061711;28;20049;-49
2021/03/07 01:45:24;;;;;;;6.53;4.37;;;8.50;45.50;;;;;;5061182;28;20086;-50
2021/03/07 01:47:53;;;;;;;5.57;4.13;;;8.50;45.80;;;;;;5056827;28;20471;-49
2021/03/07 01:50:25;;;;;;;5.60;4.17;;;8.40;46.30;;;;;;5054650;28;20143;-49
2021/03/07 01:52:51;;;;;;;5.27;4.10;;;8.40;46.00;;;;;;5057036;28;20048;-53
2021/03/07 01:55:18;;;;;;;8.27;4.57;;;8.40;46.00;;;;;;5056886;28;20040;-50
2021/03/07 01:57:46;;;;;;;5.90;4.53;;;8.40;46.20;;;;;;5061630;28;20040;-48
2021/03/07 02:00:13;;;;;;;6.93;4.20;;;8.40;46.70;;;;;;5062314;28;20118;-48
2021/03/07 02:02:39;;;;;;;5.73;3.73;;;8.40;46.70;;;;;;5052713;28;20032;-50
2021/03/07 02:05:11;;;;;;;6.20;4.00;;;8.40;45.10;;;;;;5056845;28;20086;-50
2021/03/07 02:07:38;;;;;;;7.27;3.97;;;8.40;45.50;;;;;;5069264;28;20037;-48
2021/03/07 02:10:05;;;;;;;4.13;3.37;;;8.30;45.80;;;;;;5056195;28;20049;-50
2021/03/07 02:12:33;;;;;;;6.30;4.30;;;8.40;45.40;;;;;;5056997;28;20051;-53
2021/03/07 02:15:00;;;;;;;5.73;3.93;;;8.30;45.00;;;;;;5060634;28;20490;-51
2021/03/07 02:17:26;;;;;;;5.43;3.77;;;8.30;46.10;;;;;;5058022;28;20044;-53
2021/03/07 02:19:52;;;;;;;5.90;4.43;;;8.30;46.40;;;;;;5060981;28;20055;-51
2021/03/07 02:22:49;;;;;;;5.80;4.40;;;8.30;46.40;;;;;;5049371;28;20040;-48
2021/03/07 02:25:16;;;;;;;7.63;4.10;;;8.30;45.10;;;;;;5008864;28;20339;-53
2021/03/07 02:27:42;;;;;;;6.77;4.30;;;8.30;45.90;;;;;;5053645;28;20037;-51
2021/03/07 02:30:11;;;;;;;6.07;3.73;;;8.30;46.00;;;;;;5062612;28;20387;-49
2021/03/07 02:32:42;;;;;;;10.53;4.40;;;8.30;46.00;;;;;;5052098;28;20488;-48
2021/03/07 02:35:13;;;;;;;8.03;4.33;;;8.30;46.30;;;;;;5062642;28;20094;-51
2021/03/07 02:37:44;;;;;;;6.10;4.40;;;8.30;46.80;;;;;;5058986;28;20036;-51
2021/03/07 02:40:12;;;;;;;8.37;4.60;;;8.30;46.50;;;;;;5062188;28;20063;-49
2021/03/07 02:42:41;;;;;;;7.87;4.70;;;8.30;46.10;;;;;;5055508;28;20067;-51
2021/03/07 02:45:10;;;;;;;6.33;3.70;;;8.30;47.00;;;;;;5058012;28;20068;-48
2021/03/07 02:47:37;;;;;;;6.07;4.03;;;8.30;46.40;;;;;;5055551;28;20041;-49
2021/03/07 02:50:18;;;;;;;5.03;3.47;;;8.30;47.30;;;;;;5057793;28;20055;-50
2021/03/07 02:52:50;;;;;;;4.53;3.30;;;8.30;46.30;;;;;;5053946;28;20037;-48
2021/03/07 02:55:17;;;;;;;6.73;4.23;;;8.20;46.80;;;;;;5052081;28;20571;-50
2021/03/07 02:57:45;;;;;;;4.47;3.70;;;8.20;46.90;;;;;;5059914;28;20533;-48
2021/03/07 03:00:12;;;;;;;6.63;4.10;;;8.20;47.10;;;;;;5059637;28;20033;-47
2021/03/07 03:02:39;;;;;;;4.20;3.73;;;8.20;47.40;;;;;;5061941;28;20059;-53
2021/03/07 03:05:06;;;;;;;8.53;3.97;;;8.20;48.30;;;;;;5057245;28;20075;-49
2021/03/07 03:07:33;;;;;;;5.37;3.60;;;8.20;47.60;;;;;;5062821;28;20025;-49
2021/03/07 03:10:01;;;;;;;6.60;4.33;;;8.20;46.40;;;;;;5056399;28;20051;-49
2021/03/07 03:12:31;;;;;;;4.83;3.80;;;8.20;46.80;;;;;;5058307;28;20043;-49
2021/03/07 03:14:58;;;;;;;6.70;4.13;;;8.20;46.80;;;;;;5054642;28;20499;-52
2021/03/07 03:17:25;;;;;;;4.10;3.27;;;8.20;47.50;;;;;;5061983;28;20036;-51
2021/03/07 03:19:56;;;;;;;7.90;3.53;;;8.10;47.00;;;;;;5051220;28;20041;-48
2021/03/07 03:22:22;;;;;;;4.97;3.67;;;8.20;46.40;;;;;;5054045;28;20032;-49
2021/03/07 03:24:48;;;;;;;6.63;3.73;;;8.10;47.50;;;;;;5054732;28;20500;-47
2021/03/07 03:27:15;;;;;;;4.90;3.80;;;8.20;47.00;;;;;;5064124;28;20032;-49
2021/03/07 03:29:41;;;;;;;7.20;3.30;;;8.20;47.40;;;;;;5056929;28;20430;-49
2021/03/07 03:32:09;;;;;;;9.63;3.80;;;8.10;46.30;;;;;;5050847;28;20039;-48
2021/03/07 03:34:36;;;;;;;4.97;3.43;;;8.10;46.90;;;;;;5056460;28;20477;-51
2021/03/07 03:37:02;;;;;;;6.43;3.93;;;8.10;47.10;;;;;;5058084;28;20098;-50
2021/03/07 03:39:29;;;;;;;8.77;3.17;;;8.10;47.20;;;;;;5059620;28;20040;-53
2021/03/07 03:42:01;;;;;;;5.17;2.93;;;8.00;46.90;;;;;;5057910;28;20124;-49
2021/03/07 03:44:33;;;;;;;4.50;3.80;;;8.10;47.10;;;;;;5055812;28;20368;-52
2021/03/07 03:47:00;;;;;;;5.73;3.33;;;8.10;47.60;;;;;;5062180;28;20128;-49
2021/03/07 03:49:31;;;;;;;3.93;3.33;;;8.10;46.30;;;;;;5057010;28;20490;-48
2021/03/07 03:52:03;;;;;;;4.47;3.17;;;8.10;47.00;;;;;;5058129;28;20041;-48
2021/03/07 03:54:31;;;;;;;8.20;4.27;;;8.00;46.90;;;;;;5061422;28;20036;-52
2021/03/07 03:56:59;;;;;;;6.13;3.73;;;8.00;46.80;;;;;;5053866;28;20044;-48
2021/03/07 03:59:29;;;;;;;4.20;3.30;;;8.10;47.30;;;;;;5058525;28;20128;-53
2021/03/07 04:01:58;;;;;;;3.53;2.93;;;8.10;47.70;;;;;;5059771;28;20086;-50
2021/03/07 04:04:27;;;;;;;5.97;3.77;;;8.10;47.20;;;;;;5060707;28;20117;-47
2021/03/07 04:06:54;;;;;;;6.63;3.47;;;8.10;46.70;;;;;;5050059;28;20151;-47
2021/03/07 04:09:21;;;;;;;8.00;4.03;;;8.00;47.10;;;;;;5058640;28;20037;-50
2021/03/07 04:11:47;;;;;;;4.67;3.13;;;8.10;46.80;;;;;;5056755;28;20052;-49
2021/03/07 04:14:14;;;;;;;4.27;2.93;;;8.00;46.70;;;;;;5058852;28;20079;-53
2021/03/07 04:16:40;;;;;;;6.33;3.37;;;8.00;46.80;;;;;;5054728;28;20127;-54
2021/03/07 04:19:07;;;;;;;4.90;3.30;;;8.00;46.60;;;;;;5059434;28;20041;-51
2021/03/07 04:21:33;;;;;;;4.00;3.13;;;8.00;46.40;;;;;;5055270;28;20040;-47
2021/03/07 04:23:59;;;;;;;4.03;3.03;;;8.00;46.20;;;;;;5060110;28;20128;-50
2021/03/07 04:26:24;;;;;;;5.57;2.90;;;8.00;45.80;;;;;;5071012;28;20120;-54
2021/03/07 04:28:51;;;;;;;8.20;3.23;;;7.90;45.50;;;;;;5055373;28;20183;-52
2021/03/07 04:31:17;;;;;;;5.13;3.27;;;8.00;45.50;;;;;;5054807;28;20378;-54
2021/03/07 04:33:43;;;;;;;4.50;3.00;;;8.00;45.20;;;;;;5053254;28;20048;-50
2021/03/07 04:36:09;;;;;;;6.60;3.70;;;8.00;45.60;;;;;;5055440;28;20029;-50
2021/03/07 04:38:35;;;;;;;5.37;3.30;;;8.00;45.70;;;;;;5050422;28;20037;-52
2021/03/07 04:41:02;;;;;;;4.90;3.90;;;7.90;45.40;;;;;;5057878;28;20033;-54
2021/03/07 04:43:28;;;;;;;5.53;3.60;;;7.90;45.60;;;;;;5059174;28;20056;-49
2021/03/07 04:45:54;;;;;;;6.63;3.07;;;8.00;45.90;;;;;;5067367;28;20036;-48
2021/03/07 04:48:19;;;;;;;5.83;3.80;;;8.00;46.10;;;;;;5062915;28;20032;-48
2021/03/07 04:50:45;;;;;;;5.73;3.60;;;7.90;45.90;;;;;;5063656;28;20052;-48
2021/03/07 04:53:10;;;;;;;4.73;3.10;;;7.90;46.70;;;;;;5055836;28;20417;-49
2021/03/07 04:55:36;;;;;;;8.13;4.10;;;7.90;45.90;;;;;;5064814;28;20067;-48
2021/03/07 04:58:02;;;;;;;5.83;3.97;;;8.00;45.80;;;;;;5057628;28;20032;-48
2021/03/07 05:00:28;;;;;;;8.30;4.13;;;7.90;45.70;;;;;;5064748;28;20090;-48
2021/03/07 05:02:53;;;;;;;7.23;3.93;;;7.90;45.50;;;;;;5054981;28;20029;-47
2021/03/07 05:05:19;;;;;;;7.83;3.60;;;7.90;45.60;;;;;;5061722;28;20036;-48
2021/03/07 05:07:45;;;;;;;7.70;4.63;;;7.90;45.70;;;;;;5053456;28;20036;-49
2021/03/07 05:10:11;;;;;;;8.63;4.77;;;7.90;45.80;;;;;;5059422;28;20044;-50
2021/03/07 05:12:37;;;;;;;6.50;4.20;;;7.90;46.20;;;;;;5061800;28;20516;-49
2021/03/07 05:15:07;;;;;;;7.57;4.43;;;7.90;45.80;;;;;;5055762;28;20044;-52
2021/03/07 05:17:32;;;;;;;7.00;4.13;;;7.90;46.00;;;;;;5071904;28;20083;-48
2021/03/07 05:19:58;;;;;;;6.27;4.40;;;7.90;46.20;;;;;;5058437;28;20401;-52
2021/03/07 05:22:24;;;;;;;7.07;4.60;;;7.80;46.50;;;;;;5073627;28;20120;-49
2021/03/07 05:24:50;;;;;;;6.90;4.67;;;7.80;46.70;;;;;;5055403;28;20103;-49
2021/03/07 05:27:15;;;;;;;10.07;5.07;;;7.80;47.50;;;;;;5056659;28;20093;-49
2021/03/07 05:29:41;;;;;;;7.73;4.60;;;7.80;46.80;;;;;;5063781;28;20375;-50
2021/03/07 05:32:07;;;;;;;6.70;4.43;;;7.80;47.00;;;;;;5061224;28;20116;-52
2021/03/07 05:34:32;;;;;;;7.97;4.67;;;7.80;46.00;;;;;;5062513;28;20090;-49
2021/03/07 05:36:58;;;;;;;5.90;4.23;;;7.80;46.20;;;;;;5063290;28;20041;-51
2021/03/07 05:39:29;;;;;;;9.63;4.80;;;7.80;46.20;;;;;;5059957;28;20119;-50
2021/03/07 05:41:54;;;;;;;7.17;4.30;;;7.80;46.10;;;;;;5061086;28;20040;-55
2021/03/07 05:44:20;;;;;;;6.40;4.57;;;7.80;46.00;;;;;;5055710;28;20032;-48
2021/03/07 05:46:46;;;;;;;8.00;4.20;;;7.80;46.10;;;;;;5058932;28;20033;-46
2021/03/07 05:49:12;;;;;;;5.83;4.30;;;7.80;46.10;;;;;;5052745;28;20512;-48
2021/03/07 05:51:38;;;;;;;4.97;4.47;;;7.80;45.90;;;;;;5065897;28;20097;-49
2021/03/07 05:54:05;;;;;;;5.80;4.73;;;7.80;46.20;;;;;;5059486;28;20110;-49
2021/03/07 05:56:31;;;;;;;6.60;4.77;;;7.70;46.50;;;;;;5073566;28;20045;-48
2021/03/07 05:58:58;;;;;;;6.97;4.53;;;7.80;47.30;;;;;;5062296;28;20051;-49
2021/03/07 06:01:24;;;;;;;6.27;4.73;;;7.80;46.40;;;;;;5055779;28;20163;-52
2021/03/07 06:03:49;;;;;;;5.43;4.30;;;7.80;46.40;;;;;;5060233;28;20123;-53
2021/03/07 06:06:16;;;;;;;6.73;4.27;;;7.80;46.70;;;;;;5051617;28;20040;-48
2021/03/07 06:08:41;;;;;;;6.30;4.07;;;7.80;47.00;;;;;;5061112;28;20051;-48
2021/03/07 06:11:07;;;;;;;6.07;4.23;;;7.80;46.20;;;;;;5056369;28;20033;-49
2021/03/07 06:13:43;;;;;;;5.83;3.83;;;7.80;46.00;;;;;;5057679;28;20029;-51
2021/03/07 06:16:10;;;;;;;6.07;4.00;;;7.90;44.80;;;;;;5059632;28;20127;-53
2021/03/07 06:18:46;;;;;;;5.10;3.80;;;7.80;45.90;;;;;;5059663;28;20075;-49
2021/03/07 06:21:33;;;;;;;6.30;3.70;;;7.80;45.80;;;;;;5053317;28;20120;-47
2021/03/07 06:24:01;;;;;;;6.70;3.80;;;7.80;45.30;;;;;;5057716;28;20032;-51
2021/03/07 06:26:26;;;;;;;8.00;4.10;;;7.80;45.60;;;;;;5055530;28;20102;-50
2021/03/07 06:29:12;;;;;;;6.47;4.50;;;7.80;45.50;;;;;;5064979;28;20368;-48
2021/03/07 06:31:42;;;;;;;6.23;4.50;;;7.80;46.10;;;;;;5027715;28;20041;-52
2021/03/07 06:34:07;;;;;;;8.37;4.80;;;7.80;46.20;;;;;;5064454;28;20079;-48
2021/03/07 06:36:33;;;;;;;5.93;4.30;;;7.90;46.70;;;;;;5051687;28;20057;-52
2021/03/07 06:39:06;;;;;;;6.50;5.13;;;7.80;46.10;;;;;;5074919;28;20067;-48
2021/03/07 06:41:33;;;;;;;7.60;5.50;;;7.90;46.30;;;;;;5052757;28;20044;-55
2021/03/07 06:44:13;;;;;;;8.13;5.07;;;7.90;46.20;;;;;;5060703;28;20075;-51
2021/03/07 06:46:42;;;;;;;9.63;5.20;;;8.00;45.20;;;;;;5031315;28;20040;-52
2021/03/07 06:49:19;;;;;;;7.13;5.30;;;7.90;45.40;;;;;;5057781;28;20095;-51
2021/03/07 06:51:45;;;;;;;8.17;5.80;;;8.00;46.20;;;;;;5051487;28;20060;-48
2021/03/07 06:54:16;;;;;;;12.03;6.53;;;8.00;46.00;;;;;;5055759;28;20064;-49
2021/03/07 06:56:46;;;;;;;11.77;6.83;;;7.90;46.80;;;;;;5057225;28;20122;-49
2021/03/07 06:59:20;;;;;;;9.50;6.97;;;8.00;47.20;;;;;;5057800;28;20394;-50
2021/03/07 07:01:50;;;;;;;6.93;5.73;;;8.10;46.80;;;;;;5060470;28;20515;-49
2021/03/07 07:04:17;;;;;;;11.90;6.83;;;8.00;46.90;;;;;;5050140;28;20043;-53
2021/03/07 07:06:59;;;;;;;10.57;7.33;;;8.00;47.30;;;;;;5058029;28;20051;-55
2021/03/07 07:09:25;;;;;;;9.63;7.70;;;8.10;47.50;;;;;;5057308;28;20041;-50
2021/03/07 07:11:51;;;;;;;12.27;6.90;;;7.90;46.80;;;;;;5057565;28;20486;-48
2021/03/07 07:14:45;;;;;;;9.73;6.70;;;8.00;46.90;;;;;;5051419;28;20039;-50
2021/03/07 07:17:20;;;;;;;12.57;7.57;;;8.10;46.60;;;;;;5035215;28;20032;-49
2021/03/07 07:19:47;;;;;;;10.63;7.45;;;8.20;46.50;;;;;;5069298;28;20037;-49
2021/03/07 07:22:17;;;;;;;9.57;7.60;;;8.20;47.00;;;;;;5062845;28;20067;-51
2021/03/07 07:24:44;;;;;;;8.07;6.50;;;8.20;47.40;;;;;;5056099;28;20082;-51
2021/03/07 07:27:10;;;;;;;9.30;7.43;;;8.10;46.40;;;;;;5058531;28;20041;-51
2021/03/07 07:29:37;;;;;;;9.97;7.63;;;8.30;46.80;;;;;;5053134;28;20055;-56
2021/03/07 07:35:32;;;;;;;10.53;6.90;;;8.30;46.80;;;;;;5007180;28;20988;-53
2021/03/07 07:38:04;;;;;;;9.67;6.50;;;8.20;46.60;;;;;;5056230;28;20058;-53
2021/03/07 07:40:38;;;;;;;8.13;6.70;;;8.30;46.40;;;;;;5040309;28;20094;-49
2021/03/07 07:43:04;;;;;;;10.20;6.88;;;8.30;45.80;;;;;;5058784;28;20063;-50
2021/03/07 07:45:31;;;;;;;11.87;6.80;;;8.20;46.40;;;;;;5055707;28;20398;-49
2021/03/07 07:47:58;;;;;;;8.80;6.80;;;8.20;46.20;;;;;;5057074;28;20096;-49
2021/03/07 07:50:29;;;;;;;8.90;6.80;;;8.30;46.40;;;;;;5054716;28;20126;-51
2021/03/07 07:53:07;;;;;;;11.40;7.10;;;8.30;46.40;;;;;;5056770;28;20033;-53
2021/03/07 07:55:46;;;;;;;8.87;6.47;;;8.40;45.90;;;;;;5050946;28;20045;-55
2021/03/07 07:58:34;;;;;;;9.03;7.37;;;8.40;45.80;;;;;;5061062;28;20111;-50
2021/03/07 08:01:05;;;;;;;8.40;6.77;;;8.50;46.00;;;;;;5053422;28;20462;-51
2021/03/07 08:03:50;;;;;;;8.33;6.30;;;8.50;45.90;;;;;;5058029;28;20037;-50
2021/03/07 08:06:28;;;;;;;10.18;6.78;;;8.50;45.90;;;;;;5027271;28;20036;-53
2021/03/07 08:08:53;;;;;;;7.40;5.93;;;8.50;46.10;;;;;;5058515;28;20036;-50
2021/03/07 08:11:19;;;;;;;9.00;6.93;;;8.50;45.20;;;;;;5054949;28;20103;-53
2021/03/07 08:13:47;;;;;;;7.53;6.50;;;8.60;45.30;;;;;;5057421;28;20029;-53
2021/03/07 08:16:13;;;;;;;8.30;6.67;;;8.50;45.10;;;;;;5052121;28;20495;-52
2021/03/07 08:18:49;;;;;;;10.90;7.20;;;8.50;44.30;;;;;;5063375;28;20036;-53
2021/03/07 08:21:17;;;;;;;16.03;7.70;;;8.60;44.80;;;;;;5070669;28;20130;-53
2021/03/07 08:24:02;;;;;;;15.57;9.17;;;8.60;45.10;;;;;;5059253;28;20398;-54
2021/03/07 08:26:48;;;;;;;10.73;6.18;;;8.80;46.30;;;;;;5058756;28;20033;-53
2021/03/07 08:29:42;;;;;;;8.83;6.30;;;8.80;44.40;;;;;;5025991;28;20040;-50
2021/03/07 08:32:37;;;;;;;8.83;6.83;;;8.80;44.60;;;;;;5033813;28;20090;-52
2021/03/07 08:35:09;;;;;;;7.82;5.85;;;8.90;46.20;;;;;;5060068;28;20024;-52
2021/03/07 08:37:35;;;;;;;8.23;5.73;;;8.80;44.40;;;;;;5058017;28;20518;-49
2021/03/07 08:40:34;;;;;;;9.13;6.67;;;8.90;44.40;;;;;;5061604;28;20045;-49
2021/03/07 08:43:25;;;;;;;9.07;6.47;;;8.90;44.60;;;;;;5029633;28;20037;-48
2021/03/07 08:46:12;;;;;;;7.90;6.03;;;8.60;43.60;;;;;;5039210;28;20036;-48
2021/03/07 08:48:40;;;;;;;6.97;6.03;;;8.80;44.90;;;;;;5037720;28;20036;-47
2021/03/07 08:51:07;;;;;;;8.70;6.20;;;8.90;45.00;;;;;;5061497;28;20041;-51
2021/03/07 08:53:35;;;;;;;11.20;6.70;;;9.00;45.20;;;;;;5057454;28;20061;-57
2021/03/07 08:56:00;;;;;;;7.77;6.23;;;9.00;44.90;;;;;;5062754;28;20037;-52
2021/03/07 08:58:26;;;;;;;9.67;6.40;;;9.10;45.10;;;;;;5056025;28;20090;-49
2021/03/07 09:00:58;;;;;;;8.37;7.20;;;9.10;44.20;;;;;;5062272;28;20048;-50
2021/03/07 09:03:25;;;;;;;10.83;6.87;;;9.10;44.50;;;;;;5053281;28;20063;-51
2021/03/07 09:05:51;;;;;;;8.90;6.50;;;9.00;43.90;;;;;;5061301;28;20045;-53
2021/03/07 09:08:22;;;;;;;11.07;6.33;;;9.00;44.60;;;;;;5055361;28;20036;-52
2021/03/07 09:10:50;;;;;;;7.83;6.23;;;9.20;44.00;;;;;;5057352;28;20037;-54
2021/03/07 09:13:18;;;;;;;8.50;6.03;;;9.00;43.80;;;;;;5060336;28;20041;-50
2021/03/07 09:15:51;;;;;;;11.83;6.37;;;9.10;43.70;;;;;;5054971;28;20043;-50
2021/03/07 09:18:25;;;;;;;10.30;6.43;;;9.10;43.40;;;;;;5070444;28;20051;-49
2021/03/07 09:21:06;;;;;;;6.35;5.45;;;9.20;44.00;;;;;;5057507;28;20086;-49
2021/03/07 09:23:37;;;;;;;9.60;6.17;;;9.30;43.70;;;;;;5040765;28;20036;-48
2021/03/07 09:26:24;;;;;;;9.13;6.03;;;9.30;43.70;;;;;;5057375;28;20501;-58
2021/03/07 09:28:55;;;;;;;8.87;6.17;;;9.40;43.80;;;;;;5057157;28;20116;-51
2021/03/07 09:31:23;;;;;;;9.53;6.37;;;9.40;43.60;;;;;;5058164;28;20045;-50
2021/03/07 09:33:56;;;;;;;9.53;6.37;;;9.40;43.10;;;;;;5055300;28;20068;-50
2021/03/07 09:36:26;;;;;;;11.13;6.50;;;9.50;43.60;;;;;;5059656;28;20128;-52
2021/03/07 09:39:00;;;;;;;9.03;6.30;;;9.40;43.30;;;;;;5053603;28;20089;-49
2021/03/07 09:41:36;;;;;;;9.90;6.43;;;9.50;43.40;;;;;;5057893;28;20075;-49
2021/03/07 09:44:05;;;;;;;8.80;6.30;;;9.60;43.60;;;;;;5052082;28;20127;-52
2021/03/07 09:46:32;;;;;;;7.80;5.80;;;9.70;43.80;;;;;;5061399;28;20036;-54
2021/03/07 09:49:00;;;;;;;8.33;5.73;;;9.60;43.70;;;;;;5061111;28;20490;-50
2021/03/07 09:51:31;;;;;;;11.13;6.20;;;9.70;43.40;;;;;;5059822;28;20849;-54
2021/03/07 09:53:58;;;;;;;7.23;6.27;;;9.80;43.70;;;;;;5051506;28;20082;-50
2021/03/07 09:56:25;;;;;;;8.73;6.40;;;9.70;43.70;;;;;;5060080;28;20502;-49
2021/03/07 09:58:50;;;;;;;8.43;6.70;;;9.80;43.50;;;;;;5057076;28;20037;-49
2021/03/07 10:01:16;;;;;;;10.70;6.43;;;9.80;43.70;;;;;;5056950;28;20375;-51
2021/03/07 10:03:44;;;;;;;10.97;6.87;;;9.90;43.40;;;;;;5060721;28;20033;-50
2021/03/07 10:06:19;;;;;;;7.27;6.57;;;10.00;43.00;;;;;;5060769;28;20029;-49
2021/03/07 10:09:03;;;;;;;9.40;6.83;;;10.10;42.60;;;;;;5057794;28;20048;-49
2021/03/07 10:11:29;;;;;;;8.17;6.80;;;10.10;43.40;;;;;;5057960;28;20063;-50
2021/03/07 10:14:06;;;;;;;6.87;5.70;;;10.10;42.90;;;;;;5061867;28;20525;-53
2021/03/07 10:16:34;;;;;;;9.40;6.80;;;10.10;42.80;;;;;;5053286;28;20044;-51
2021/03/07 10:19:14;;;;;;;9.80;6.47;;;10.10;43.40;;;;;;5070175;28;20048;-49
2021/03/07 10:21:41;;;;;;;10.57;6.77;;;10.20;41.90;;;;;;5019907;28;20075;-49
2021/03/07 10:24:14;;;;;;;8.67;6.10;;;10.10;42.20;;;;;;5057219;28;20041;-48
2021/03/07 10:26:40;;;;;;;8.90;6.50;;;10.20;42.50;;;;;;5053193;28;20470;-48
2021/03/07 10:29:17;;;;;;;9.40;6.70;;;10.40;42.20;;;;;;5058812;28;20413;-49
2021/03/07 10:32:04;;;;;;;10.03;6.97;;;10.50;42.70;;;;;;5055087;28;20124;-49
2021/03/07 10:34:56;;;;;;;8.43;6.33;;;10.60;42.50;;;;;;5053871;28;20040;-52
2021/03/07 10:37:43;;;;;;;53.67;13.00;;;10.70;42.30;;;;;;5017693;28;20037;-52
2021/03/07 10:40:29;;;;;;;9.20;6.13;;;10.70;41.30;;;;;;5038657;28;20051;-54
2021/03/07 10:43:01;;;;;;;10.33;8.00;;;10.80;42.20;;;;;;5056814;28;20120;-50
2021/03/07 10:45:27;;;;;;;11.83;7.47;;;10.80;42.60;;;;;;5055828;28;20041;-52
2021/03/07 10:48:03;;;;;;;10.83;8.07;;;11.00;42.70;;;;;;5067445;28;20028;-51
2021/03/07 10:50:29;;;;;;;9.53;7.73;;;11.00;42.40;;;;;;5056522;28;20099;-52
2021/03/07 10:52:56;;;;;;;11.80;7.83;;;11.10;42.40;;;;;;5059130;28;20090;-52
2021/03/07 10:55:22;;;;;;;10.27;8.17;;;11.10;43.50;;;;;;5065586;28;20397;-51
2021/03/07 10:57:48;;;;;;;13.43;8.33;;;11.30;43.70;;;;;;5051836;28;20064;-50
2021/03/07 11:00:14;;;;;;;8.30;6.67;;;11.40;43.10;;;;;;5056505;28;20513;-56
2021/03/07 11:02:42;;;;;;;8.10;6.83;;;11.30;42.50;;;;;;5057459;28;20524;-50
2021/03/07 11:05:09;;;;;;;10.53;7.77;;;11.30;42.20;;;;;;5056105;28;20045;-49
2021/03/07 11:07:35;;;;;;;15.03;8.83;;;11.30;41.50;;;;;;5051207;28;20129;-51
2021/03/07 11:10:00;;;;;;;8.90;7.63;;;11.10;41.90;;;;;;5063405;28;20137;-50
2021/03/07 11:12:26;;;;;;;9.97;7.90;;;11.30;42.70;;;;;;5054392;28;20425;-49
2021/03/07 11:14:52;;;;;;;10.70;7.70;;;11.40;43.40;;;;;;5057297;28;20041;-50
2021/03/07 11:17:23;;;;;;;9.27;7.23;;;11.50;42.70;;;;;;5055913;28;20036;-49
2021/03/07 11:19:49;;;;;;;8.80;7.77;;;11.60;43.50;;;;;;5056896;28;20045;-50
2021/03/07 11:22:15;;;;;;;8.97;7.80;;;11.70;42.30;;;;;;5052019;28;20509;-50
2021/03/07 11:24:40;;;;;;;12.40;8.00;;;11.70;42.20;;;;;;5060598;28;20084;-51
2021/03/07 11:27:06;;;;;;;13.50;8.57;;;11.70;42.10;;;;;;5058807;28;20041;-51
2021/03/07 11:29:32;;;;;;;9.95;7.60;;;11.80;42.40;;;;;;5053281;28;20052;-50
2021/03/07 11:31:58;;;;;;;11.52;8.15;;;11.80;40.90;;;;;;5056101;28;20049;-52
2021/03/07 11:34:24;;;;;;;14.32;9.23;;;11.70;41.30;;;;;;5055001;28;20045;-52
2021/03/07 11:36:51;;;;;;;10.23;8.23;;;11.80;41.70;;;;;;5060484;28;20060;-49
2021/03/07 11:39:17;;;;;;;10.90;9.00;;;11.80;42.10;;;;;;5057562;28;20513;-52
2021/03/07 11:41:42;;;;;;;10.90;8.35;;;11.80;41.50;;;;;;5063285;28;20037;-53
2021/03/07 11:44:08;;;;;;;10.50;8.10;;;11.80;41.60;;;;;;5054440;28;20033;-49
2021/03/07 11:46:34;;;;;;;10.40;8.73;;;11.90;41.70;;;;;;5054203;28;20141;-52
2021/03/07 11:48:59;;;;;;;11.10;8.10;;;11.90;40.30;;;;;;5058247;28;20051;-56
2021/03/07 11:51:25;;;;;;;12.85;9.15;;;11.90;41.80;;;;;;5060410;28;20033;-57
2021/03/07 11:53:51;;;;;;;10.38;8.75;;;12.00;41.80;;;;;;5052857;28;20497;-57
2021/03/07 11:56:16;;;;;;;8.90;7.77;;;12.20;41.90;;;;;;5054889;28;20555;-57
2021/03/07 11:58:42;;;;;;;14.00;9.47;;;12.30;41.70;;;;;;5053871;28;20398;-56
2021/03/07 12:01:07;;;;;;;9.95;8.95;;;12.30;41.30;;;;;;5056581;28;20036;-55
2021/03/07 12:03:33;;;;;;;12.10;8.80;;;12.20;41.20;;;;;;5058648;28;20036;-55
2021/03/07 12:05:59;;;;;;;11.70;9.52;;;12.30;41.40;;;;;;5050574;28;20128;-56
2021/03/07 12:08:25;;;;;;;9.48;8.55;;;12.40;40.30;;;;;;5060047;28;20044;-57
2021/03/07 12:10:50;;;;;;;12.15;9.35;;;12.60;40.40;;;;;;5070301;28;20414;-57
2021/03/07 12:13:19;;;;;;;11.35;8.65;;;12.50;40.50;;;;;;5053476;28;20048;-55
2021/03/07 12:15:45;;;;;;;9.95;8.50;;;12.70;40.60;;;;;;5053971;28;20064;-57
2021/03/07 12:18:10;;;;;;;10.55;9.45;;;12.70;40.50;;;;;;5059735;28;20117;-57
2021/03/07 12:20:36;;;;;;;10.55;8.32;;;12.90;40.00;;;;;;5056374;28;20751;-58
2021/03/07 12:23:02;;;;;;;12.35;10.00;;;13.00;40.20;;;;;;5057976;28;20032;-55
2021/03/07 12:25:28;;;;;;;10.65;9.00;;;13.10;39.60;;;;;;5051061;28;20041;-56
2021/03/07 12:27:53;;;;;;;12.63;10.10;;;12.90;40.10;;;;;;5057097;28;20422;-57
2021/03/07 12:30:19;;;;;;;11.73;10.10;;;13.00;39.70;;;;;;5050311;28;20047;-58
2021/03/07 12:32:45;;;;;;;12.15;9.57;;;12.90;40.20;;;;;;5055827;28;20101;-56
2021/03/07 12:35:11;;;;;;;13.00;10.30;;;13.10;40.00;;;;;;5035504;28;20048;-57
2021/03/07 12:37:36;;;;;;;13.88;9.52;;;13.10;39.30;;;;;;5054165;28;20059;-56
2021/03/07 12:40:04;;;;;;;10.98;9.20;;;13.20;38.90;;;;;;5057346;28;20040;-57
2021/03/07 12:42:29;;;;;;;13.85;8.77;;;13.30;39.20;;;;;;5053040;28;20048;-57
2021/03/07 12:44:57;;;;;;;10.77;8.63;;;13.60;38.70;;;;;;5059136;28;20064;-57
2021/03/07 12:47:23;;;;;;;11.63;9.18;;;13.90;38.60;;;;;;5054964;28;20059;-58
2021/03/07 12:49:49;;;;;;;11.48;10.02;;;14.20;38.70;;;;;;5053395;28;20072;-57
2021/03/07 12:52:14;;;;;;;9.90;8.90;;;14.30;37.90;;;;;;5053402;28;20132;-55
2021/03/07 12:54:40;;;;;;;12.30;10.07;;;14.40;37.50;;;;;;5058007;28;20056;-59
2021/03/07 12:57:07;;;;;;;10.95;9.82;;;14.40;37.90;;;;;;5054320;28;20041;-56
2021/03/07 12:59:36;;;;;;;11.07;9.93;;;14.60;37.50;;;;;;5058118;28;20032;-55
2021/03/07 13:02:02;;;;;;;11.48;9.57;;;14.70;36.70;;;;;;5050297;28;20108;-55
2021/03/07 13:04:27;;;;;;;12.55;10.02;;;15.10;36.70;;;;;;5071498;28;20048;-54
2021/03/07 13:06:53;;;;;;;11.52;10.25;;;15.10;36.70;;;;;;5057770;28;20393;-56
2021/03/07 13:09:19;;;;;;;11.50;9.90;;;15.40;36.20;;;;;;5057279;28;20090;-52
2021/03/07 13:11:45;;;;;;;11.55;10.35;;;15.70;35.80;;;;;;5055880;28;20234;-54